createdAt,value
2022-12-31T00:02:08.156Z,72.25
2022-12-31T00:04:38.130Z,71.99
2022-12-31T00:07:07.928Z,72.32
2022-12-31T00:09:37.784Z,72.61
2022-12-31T00:12:08.096Z,72.75
2022-12-31T00:14:37.995Z,72.95
2022-12-31T00:17:10.621Z,73.19
2022-12-31T00:19:40.635Z,74.06
2022-12-31T00:22:10.459Z,73.96
2022-12-31T00:24:40.313Z,74.57
2022-12-31T00:27:10.128Z,74.77
2022-12-31T00:29:39.992Z,74.48
2022-12-31T00:32:12.421Z,74.77
2022-12-31T00:34:42.377Z,75.41
2022-12-31T00:37:12.214Z,75.10
2022-12-31T00:39:42.053Z,75.11
2022-12-31T00:42:11.904Z,74.59
2022-12-31T00:44:41.772Z,74.80
2022-12-31T00:47:14.275Z,74.62
2022-12-31T00:49:44.082Z,75.17
2022-12-31T00:52:15.920Z,75.12
2022-12-31T00:54:45.728Z,74.43
2022-12-31T00:57:16.271Z,74.62
2022-12-31T00:59:46.159Z,73.61
2022-12-31T01:02:18.831Z,73.08
2022-12-31T01:04:48.752Z,72.69
2022-12-31T01:07:18.591Z,73.24
2022-12-31T01:09:48.443Z,73.28
2022-12-31T01:12:18.304Z,73.60
2022-12-31T01:14:48.170Z,73.59
2022-12-31T01:17:20.629Z,73.58
2022-12-31T01:19:50.553Z,73.28
2022-12-31T01:22:20.413Z,72.81
2022-12-31T01:24:50.299Z,72.30
2022-12-31T01:27:20.141Z,72.03
2022-12-31T01:29:50.027Z,71.85
2022-12-31T01:32:22.568Z,70.97
2022-12-31T01:34:52.450Z,70.72
2022-12-31T01:37:22.271Z,70.40
2022-12-31T01:39:52.573Z,69.66
2022-12-31T01:42:22.401Z,69.19
2022-12-31T01:44:57.789Z,68.24
2022-12-31T01:47:40.885Z,68.15
2022-12-31T01:50:16.788Z,68.23
2022-12-31T01:52:50.987Z,67.92
2022-12-31T01:55:25.791Z,67.19
2022-12-31T01:58:03.989Z,67.46
2022-12-31T02:00:34.760Z,66.91
2022-12-31T02:03:10.207Z,67.09
2022-12-31T02:05:48.886Z,66.83
2022-12-31T02:08:19.041Z,65.95
2022-12-31T02:10:48.905Z,65.46
2022-12-31T02:13:19.225Z,65.54
2022-12-31T02:16:03.177Z,65.40
2022-12-31T02:18:44.865Z,65.19
2022-12-31T02:21:47.814Z,65.67
2022-12-31T02:24:41.589Z,65.37
2022-12-31T02:27:16.119Z,64.61
2022-12-31T02:30:18.427Z,64.50
2022-12-31T02:33:10.981Z,63.88
2022-12-31T02:35:51.656Z,63.46
2022-12-31T02:38:26.198Z,63.54
2022-12-31T02:40:57.129Z,63.70
2022-12-31T02:43:27.230Z,63.52
2022-12-31T02:46:10.891Z,63.49
2022-12-31T02:48:56.503Z,63.24
2022-12-31T02:51:42.642Z,62.71
2022-12-31T02:54:29.181Z,62.86
2022-12-31T02:57:13.063Z,62.82
2022-12-31T03:00:07.236Z,63.20
2022-12-31T03:02:42.521Z,63.65
2022-12-31T03:05:18.776Z,64.46
2022-12-31T03:07:49.029Z,64.62
2022-12-31T03:10:19.580Z,64.11
2022-12-31T03:12:47.719Z,64.02
2022-12-31T03:15:23.991Z,63.68
2022-12-31T03:17:57.478Z,63.07
2022-12-31T03:20:45.843Z,63.20
2022-12-31T03:23:19.129Z,63.21
2022-12-31T03:25:47.041Z,63.14
2022-12-31T03:28:19.622Z,63.38
2022-12-31T03:30:52.097Z,64.09
2022-12-31T03:33:22.554Z,63.98
2022-12-31T03:35:56.441Z,64.16
2022-12-31T03:38:26.309Z,63.78
2022-12-31T03:40:56.163Z,64.27
2022-12-31T03:43:26.059Z,63.85
2022-12-31T03:45:59.830Z,63.97
2022-12-31T03:48:30.177Z,63.76
2022-12-31T03:51:02.591Z,63.92
2022-12-31T03:53:32.467Z,64.05
2022-12-31T03:56:02.344Z,64.40
2022-12-31T03:58:32.211Z,64.00
2022-12-31T04:01:02.147Z,64.03
2022-12-31T04:03:32.113Z,64.37
2022-12-31T04:06:04.575Z,64.10
2022-12-31T04:08:34.415Z,64.14
2022-12-31T04:11:04.584Z,64.83
2022-12-31T04:13:34.424Z,64.82
2022-12-31T04:16:04.334Z,64.87
2022-12-31T04:18:34.788Z,64.95
2022-12-31T04:21:08.511Z,64.95
2022-12-31T04:23:38.544Z,64.88
2022-12-31T04:26:08.451Z,64.94
2022-12-31T04:28:38.283Z,64.31
2022-12-31T04:31:08.455Z,64.39
2022-12-31T04:33:38.321Z,64.06
2022-12-31T04:36:11.727Z,63.85
2022-12-31T04:38:41.659Z,63.97
2022-12-31T04:41:21.123Z,64.75
2022-12-31T04:43:53.857Z,64.43
2022-12-31T04:46:25.637Z,64.03
2022-12-31T04:48:55.584Z,63.93
2022-12-31T04:51:29.494Z,64.25
2022-12-31T04:53:59.786Z,64.28
2022-12-31T04:56:30.590Z,64.59
2022-12-31T04:59:01.004Z,64.31
2022-12-31T05:01:31.238Z,64.47
2022-12-31T05:04:01.516Z,64.37
2022-12-31T05:06:34.151Z,64.68
2022-12-31T05:09:04.279Z,64.60
2022-12-31T05:11:35.719Z,64.76
2022-12-31T05:14:05.612Z,64.63
2022-12-31T05:16:35.505Z,65.10
2022-12-31T05:19:06.509Z,65.01
2022-12-31T05:21:39.199Z,64.37
2022-12-31T05:24:10.056Z,64.65
2022-12-31T05:26:39.906Z,65.03
2022-12-31T05:29:09.733Z,64.97
2022-12-31T05:31:39.558Z,64.82
2022-12-31T05:34:09.405Z,64.80
2022-12-31T05:36:41.798Z,65.04
2022-12-31T05:39:11.658Z,64.76
2022-12-31T05:41:41.474Z,64.56
2022-12-31T05:44:15.033Z,64.52
2022-12-31T05:46:44.870Z,64.68
2022-12-31T05:49:14.700Z,64.88
2022-12-31T05:51:47.470Z,64.92
2022-12-31T05:54:17.353Z,64.22
2022-12-31T05:56:47.283Z,64.69
2022-12-31T05:59:17.201Z,64.95
2022-12-31T06:01:47.121Z,64.83
2022-12-31T06:04:16.926Z,64.43
2022-12-31T06:06:49.358Z,64.89
2022-12-31T06:09:20.144Z,64.42
2022-12-31T06:11:50.196Z,64.74
2022-12-31T06:14:20.509Z,64.14
2022-12-31T06:16:50.431Z,64.68
2022-12-31T06:19:20.357Z,64.18
2022-12-31T06:21:52.902Z,64.46
2022-12-31T06:24:23.072Z,64.66
2022-12-31T06:26:52.893Z,64.19
2022-12-31T06:29:22.718Z,63.57
2022-12-31T06:31:52.547Z,64.10
2022-12-31T06:34:22.662Z,64.22
2022-12-31T06:36:55.138Z,63.82
2022-12-31T06:39:25.013Z,63.88
2022-12-31T06:41:54.872Z,63.91
2022-12-31T06:44:25.094Z,63.96
2022-12-31T06:46:55.143Z,63.78
2022-12-31T06:49:25.061Z,63.27
2022-12-31T06:51:57.561Z,63.25
2022-12-31T06:54:27.401Z,63.04
2022-12-31T06:56:57.995Z,63.41
2022-12-31T06:59:31.065Z,63.26
2022-12-31T07:02:24.372Z,63.31
2022-12-31T07:05:12.575Z,63.33
2022-12-31T07:07:59.819Z,63.10
2022-12-31T07:10:42.339Z,62.88
2022-12-31T07:13:30.996Z,62.97
2022-12-31T07:16:18.970Z,63.18
2022-12-31T07:18:55.952Z,63.11
2022-12-31T07:21:37.073Z,62.92
2022-12-31T07:24:13.464Z,62.92
2022-12-31T07:27:04.325Z,62.72
2022-12-31T07:29:48.803Z,62.97
2022-12-31T07:32:36.030Z,63.26
2022-12-31T07:35:19.220Z,62.89
2022-12-31T07:38:00.719Z,62.62
2022-12-31T07:40:52.705Z,62.74
2022-12-31T07:43:36.550Z,62.62
2022-12-31T07:46:16.503Z,62.58
2022-12-31T07:48:46.913Z,62.25
2022-12-31T07:51:17.636Z,62.43
2022-12-31T07:53:47.471Z,61.54
2022-12-31T07:56:20.071Z,62.02
2022-12-31T07:59:07.407Z,61.90
2022-12-31T08:01:49.860Z,61.23
2022-12-31T08:04:30.122Z,61.16
2022-12-31T08:07:13.722Z,61.01
2022-12-31T08:09:56.587Z,60.81
2022-12-31T08:12:34.034Z,60.54
2022-12-31T08:15:05.215Z,60.65
2022-12-31T08:17:35.457Z,60.24
2022-12-31T08:20:06.569Z,59.44
2022-12-31T08:23:02.879Z,59.44
2022-12-31T08:25:50.122Z,59.33
2022-12-31T08:28:38.128Z,59.19
2022-12-31T08:31:17.536Z,59.09
2022-12-31T08:34:02.107Z,58.81
2022-12-31T08:36:48.197Z,58.69
2022-12-31T08:39:36.392Z,58.73
2022-12-31T08:42:16.823Z,58.43
2022-12-31T08:44:59.746Z,57.65
2022-12-31T08:47:42.332Z,58.00
2022-12-31T08:50:17.878Z,57.48
2022-12-31T08:52:50.573Z,57.19
2022-12-31T08:55:22.103Z,57.18
2022-12-31T08:58:09.249Z,56.59
2022-12-31T09:00:43.575Z,56.67
2022-12-31T09:03:28.921Z,56.63
2022-12-31T09:06:09.344Z,56.27
2022-12-31T09:08:50.308Z,56.29
2022-12-31T09:11:26.332Z,55.88
2022-12-31T09:14:24.026Z,56.67
2022-12-31T09:17:06.689Z,56.51
2022-12-31T09:19:36.629Z,56.36
2022-12-31T09:22:07.140Z,56.02
2022-12-31T09:24:37.769Z,55.93
2022-12-31T09:27:18.276Z,55.69
2022-12-31T09:30:04.038Z,55.84
2022-12-31T09:32:58.581Z,55.60
2022-12-31T09:35:39.917Z,55.49
2022-12-31T09:38:21.453Z,55.38
2022-12-31T09:41:08.438Z,55.27
2022-12-31T09:44:17.228Z,54.91
2022-12-31T09:47:26.242Z,55.76
2022-12-31T09:50:29.166Z,55.64
2022-12-31T09:53:29.626Z,55.48
2022-12-31T09:56:07.072Z,55.42
2022-12-31T09:58:48.058Z,55.20
2022-12-31T10:01:41.118Z,55.00
2022-12-31T10:04:36.511Z,54.85
2022-12-31T10:07:29.079Z,54.66
2022-12-31T10:10:09.632Z,54.58
2022-12-31T10:13:09.404Z,54.06
2022-12-31T10:16:04.755Z,54.28
2022-12-31T10:18:49.426Z,53.73
2022-12-31T10:21:43.492Z,53.17
2022-12-31T10:24:58.475Z,53.27
2022-12-31T10:27:50.670Z,52.42
2022-12-31T10:30:23.499Z,52.31
2022-12-31T10:33:08.723Z,52.79
2022-12-31T10:35:45.920Z,52.29
2022-12-31T10:38:35.215Z,51.96
2022-12-31T10:41:49.783Z,51.47
2022-12-31T10:44:59.933Z,51.03
2022-12-31T10:48:02.197Z,51.20
2022-12-31T10:51:05.643Z,50.83
2022-12-31T10:54:15.141Z,51.13
2022-12-31T10:57:32.530Z,50.63
2022-12-31T11:00:14.282Z,50.73
2022-12-31T11:03:29.750Z,50.16
2022-12-31T11:06:40.974Z,50.40
2022-12-31T11:09:58.361Z,49.62
2022-12-31T11:12:59.886Z,49.44
2022-12-31T11:15:58.103Z,49.20
2022-12-31T11:18:42.927Z,49.55
2022-12-31T11:21:28.598Z,49.06
2022-12-31T11:24:12.816Z,49.17
2022-12-31T11:27:01.229Z,48.78
2022-12-31T11:29:51.566Z,48.52
2022-12-31T11:32:40.797Z,49.07
2022-12-31T11:35:28.342Z,48.68
2022-12-31T11:38:12.819Z,48.66
2022-12-31T11:40:54.144Z,48.80
2022-12-31T11:43:35.673Z,48.07
2022-12-31T11:46:27.641Z,47.24
2022-12-31T11:49:19.910Z,47.24
2022-12-31T11:52:13.523Z,47.50
2022-12-31T11:55:00.849Z,47.43
2022-12-31T11:57:37.628Z,47.29
2022-12-31T12:00:19.023Z,46.34
2022-12-31T12:02:51.735Z,46.86
2022-12-31T12:05:27.128Z,46.30
2022-12-31T12:07:57.314Z,45.58
2022-12-31T12:10:36.004Z,46.44
2022-12-31T12:13:16.128Z,46.45
2022-12-31T12:15:52.534Z,46.12
2022-12-31T12:18:43.011Z,46.35
2022-12-31T12:21:19.073Z,45.81
2022-12-31T12:23:59.167Z,45.65
2022-12-31T12:26:32.542Z,45.57
2022-12-31T12:29:11.128Z,45.42
2022-12-31T12:31:41.959Z,45.82
2022-12-31T12:34:26.568Z,45.27
2022-12-31T12:36:59.848Z,45.49
2022-12-31T12:39:32.618Z,45.32
2022-12-31T12:42:07.128Z,44.77
2022-12-31T12:44:38.285Z,44.47
2022-12-31T12:47:11.139Z,45.20
2022-12-31T12:49:44.460Z,44.85
2022-12-31T12:52:47.234Z,44.85
2022-12-31T12:55:28.381Z,44.80
2022-12-31T12:58:19.039Z,44.85
2022-12-31T13:01:01.476Z,44.90
2022-12-31T13:07:22.630Z,44.62
2022-12-31T13:10:15.103Z,45.44
2022-12-31T13:15:55.105Z,44.54
2022-12-31T13:18:41.288Z,44.23
2022-12-31T13:21:32.688Z,44.23
2022-12-31T13:24:15.159Z,44.19
2022-12-31T13:26:55.472Z,43.94
2022-12-31T13:29:32.723Z,44.11
2022-12-31T13:32:08.299Z,44.39
2022-12-31T13:34:44.528Z,44.30
2022-12-31T13:37:27.377Z,44.51
2022-12-31T13:40:04.480Z,44.76
2022-12-31T13:42:46.518Z,44.24
2022-12-31T13:45:25.315Z,45.27
2022-12-31T13:48:00.614Z,45.64
2022-12-31T13:50:39.132Z,45.28
2022-12-31T13:53:20.405Z,45.48
2022-12-31T13:56:02.110Z,45.39
2022-12-31T13:58:42.641Z,45.67
2022-12-31T14:01:19.143Z,44.98
2022-12-31T14:03:59.574Z,45.32
2022-12-31T14:06:37.004Z,45.09
2022-12-31T14:09:09.373Z,45.29
2022-12-31T14:12:00.983Z,46.20
2022-12-31T14:14:45.966Z,46.24
2022-12-31T14:17:27.065Z,46.76
2022-12-31T14:20:09.274Z,46.55
2022-12-31T14:22:50.347Z,46.99
2022-12-31T14:25:26.619Z,47.57
2022-12-31T14:27:59.723Z,47.97
2022-12-31T14:30:38.992Z,47.37
2022-12-31T14:33:37.429Z,47.90
2022-12-31T14:36:26.671Z,47.81
2022-12-31T14:39:20.546Z,47.52
2022-12-31T14:42:05.353Z,48.13
2022-12-31T14:44:50.971Z,47.95
2022-12-31T14:47:39.640Z,47.70
2022-12-31T14:50:15.503Z,48.37
2022-12-31T14:52:57.260Z,48.27
2022-12-31T14:55:31.190Z,48.27
2022-12-31T14:58:27.764Z,47.90
2022-12-31T15:00:58.551Z,48.16
2022-12-31T15:03:44.744Z,48.66
2022-12-31T15:06:39.170Z,48.25
2022-12-31T15:09:22.853Z,48.55
2022-12-31T15:12:18.386Z,48.67
2022-12-31T15:15:18.464Z,48.71
2022-12-31T15:18:02.729Z,49.51
2022-12-31T15:21:15.196Z,49.77
2022-12-31T15:23:46.923Z,49.35
2022-12-31T15:26:25.648Z,49.12
2022-12-31T15:29:02.685Z,49.21
2022-12-31T15:31:35.862Z,50.00
2022-12-31T15:34:08.284Z,49.73
2022-12-31T15:36:54.050Z,49.86
2022-12-31T15:39:44.584Z,50.00
2022-12-31T15:42:38.605Z,49.79
2022-12-31T15:45:18.857Z,50.33
2022-12-31T15:47:53.302Z,49.77
2022-12-31T15:50:25.793Z,49.71
2022-12-31T15:53:00.785Z,50.02
2022-12-31T15:55:37.651Z,50.33
2022-12-31T15:58:14.033Z,50.45
2022-12-31T16:01:00.101Z,50.28
2022-12-31T16:03:33.641Z,50.65
2022-12-31T16:06:07.443Z,50.63
2022-12-31T16:08:41.484Z,50.79
2022-12-31T16:11:12.955Z,50.89
2022-12-31T16:13:46.926Z,50.74
2022-12-31T16:16:25.551Z,50.86
2022-12-31T16:18:56.284Z,51.61
2022-12-31T16:21:32.797Z,51.12
2022-12-31T16:24:07.884Z,52.13
2022-12-31T16:26:46.967Z,51.58
2022-12-31T16:29:18.937Z,51.64
2022-12-31T16:31:51.493Z,51.54
2022-12-31T16:34:24.130Z,51.86
2022-12-31T16:37:02.300Z,51.61
2022-12-31T16:39:37.541Z,51.40
2022-12-31T16:42:19.444Z,51.28
2022-12-31T16:44:50.236Z,51.72
2022-12-31T16:47:25.201Z,51.93
2022-12-31T16:50:04.468Z,51.85
2022-12-31T16:52:39.648Z,51.79
2022-12-31T16:55:20.255Z,51.84
2022-12-31T16:57:55.947Z,51.97
2022-12-31T17:00:29.669Z,52.01
2022-12-31T17:03:10.231Z,52.01
2022-12-31T17:06:04.838Z,51.51
2022-12-31T17:08:45.092Z,51.55
2022-12-31T17:11:34.368Z,51.94
2022-12-31T17:14:15.470Z,51.62
2022-12-31T17:17:03.201Z,51.41
2022-12-31T17:19:46.426Z,51.68
2022-12-31T17:22:34.259Z,51.44
2022-12-31T17:25:08.120Z,51.85
2022-12-31T17:27:40.808Z,51.96
2022-12-31T17:30:41.167Z,51.71
2022-12-31T17:33:31.359Z,51.85
2022-12-31T17:36:24.806Z,51.56
2022-12-31T17:38:54.805Z,51.52
2022-12-31T17:41:30.257Z,52.03
2022-12-31T17:44:05.644Z,52.24
2022-12-31T17:46:45.493Z,52.10
2022-12-31T17:49:22.133Z,52.23
2022-12-31T17:51:52.586Z,52.20
2022-12-31T17:54:28.747Z,51.97
2022-12-31T18:08:01.237Z,52.66
2022-12-31T18:10:37.457Z,52.67
2022-12-31T18:13:10.905Z,52.66
2022-12-31T18:15:43.624Z,52.51
2022-12-31T18:18:25.350Z,53.01
2022-12-31T18:20:59.182Z,52.61
2022-12-31T18:23:31.937Z,53.06
2022-12-31T18:26:01.803Z,53.30
2022-12-31T18:28:31.985Z,52.99
2022-12-31T18:31:04.598Z,53.23
2022-12-31T18:33:34.610Z,53.72
2022-12-31T18:36:09.145Z,53.45
2022-12-31T18:38:40.803Z,53.50
2022-12-31T18:41:19.537Z,53.35
2022-12-31T18:43:50.260Z,53.80
2022-12-31T18:46:25.539Z,53.66
2022-12-31T18:48:55.461Z,54.03
2022-12-31T18:51:32.157Z,54.06
2022-12-31T18:54:02.594Z,54.22
2022-12-31T18:56:32.608Z,54.16
2022-12-31T18:59:02.594Z,54.12
2022-12-31T19:01:37.634Z,53.96
2022-12-31T19:04:18.717Z,53.92
2022-12-31T19:06:52.402Z,53.57
2022-12-31T19:12:15.622Z,53.29
2022-12-31T19:14:45.980Z,52.71
2022-12-31T19:17:18.519Z,52.60
2022-12-31T19:19:48.367Z,52.55
2022-12-31T19:22:18.480Z,52.35
2022-12-31T19:24:48.348Z,52.46
2022-12-31T19:27:18.308Z,52.38
2022-12-31T19:29:48.150Z,52.35
2022-12-31T19:32:20.773Z,52.38
2022-12-31T19:34:50.648Z,52.65
2022-12-31T19:37:20.500Z,52.97
2022-12-31T19:39:51.506Z,52.89
2022-12-31T19:42:21.559Z,53.23
2022-12-31T19:44:51.440Z,53.25
2022-12-31T19:47:23.955Z,53.56
2022-12-31T19:50:15.436Z,53.43
2022-12-31T19:52:46.948Z,53.67
2022-12-31T19:55:19.435Z,53.80
2022-12-31T19:57:49.901Z,54.04
2022-12-31T20:00:21.553Z,54.13
2022-12-31T20:02:54.182Z,53.93
2022-12-31T20:05:24.276Z,54.48
2022-12-31T20:07:54.169Z,54.62
2022-12-31T20:10:24.128Z,54.42
2022-12-31T20:12:53.990Z,54.83
2022-12-31T20:15:23.882Z,54.60
2022-12-31T20:17:57.563Z,55.02
2022-12-31T20:20:29.128Z,54.57
2022-12-31T20:22:59.800Z,54.91
2022-12-31T20:25:29.709Z,54.91
2022-12-31T20:27:59.621Z,54.82
2022-12-31T20:30:29.516Z,54.87
2022-12-31T20:33:02.022Z,54.68
2022-12-31T20:35:31.836Z,55.16
2022-12-31T20:38:01.800Z,55.63
2022-12-31T20:40:31.710Z,55.04
2022-12-31T20:43:01.649Z,55.86
2022-12-31T20:45:31.590Z,55.83
2022-12-31T20:48:04.061Z,56.12
2022-12-31T20:50:33.906Z,55.69
2022-12-31T20:53:03.889Z,55.74
2022-12-31T20:55:33.772Z,55.59
2022-12-31T20:58:04.250Z,55.67
2022-12-31T21:00:35.154Z,55.58
2022-12-31T21:03:23.787Z,55.40
2022-12-31T21:05:57.906Z,55.55
2022-12-31T21:08:34.344Z,55.37
2022-12-31T21:11:25.203Z,55.30
2022-12-31T21:13:52.778Z,54.86
2022-12-31T21:16:22.828Z,55.15
2022-12-31T21:18:55.518Z,54.53
2022-12-31T21:21:26.462Z,54.41
2022-12-31T21:23:56.440Z,53.88
2022-12-31T21:26:26.290Z,53.82
2022-12-31T21:28:56.401Z,54.11
2022-12-31T21:31:26.519Z,53.94
2022-12-31T21:33:59.238Z,53.67
2022-12-31T21:36:29.210Z,53.72
2022-12-31T21:38:59.151Z,54.15
2022-12-31T21:41:41.493Z,54.34
2022-12-31T21:44:11.451Z,54.53
2022-12-31T21:47:00.879Z,53.97
2022-12-31T21:49:33.846Z,54.40
2022-12-31T21:52:16.135Z,53.94
2022-12-31T21:54:58.462Z,54.09
2022-12-31T21:57:28.352Z,54.24
2022-12-31T22:00:40.251Z,54.42
2022-12-31T22:03:13.428Z,54.62
2022-12-31T22:05:54.433Z,54.53
2022-12-31T22:08:25.656Z,55.04
2022-12-31T22:10:55.514Z,54.98
2022-12-31T22:13:26.515Z,55.25
2022-12-31T22:16:04.387Z,54.83
2022-12-31T22:18:38.859Z,54.92
2022-12-31T22:21:18.987Z,55.07
2022-12-31T22:23:50.777Z,55.36
2022-12-31T22:26:23.527Z,55.17
2022-12-31T22:28:58.992Z,55.03
2022-12-31T22:31:30.723Z,55.35
2022-12-31T22:34:02.075Z,55.18
2022-12-31T22:36:34.632Z,54.83
2022-12-31T22:39:04.500Z,55.23
2022-12-31T22:41:34.968Z,54.48
2022-12-31T22:44:05.168Z,53.98
2022-12-31T22:46:35.760Z,53.95
2022-12-31T22:49:07.421Z,54.36
2022-12-31T22:51:57.699Z,54.15
2022-12-31T22:54:28.779Z,54.38
2022-12-31T22:56:58.716Z,53.86
2022-12-31T22:59:28.714Z,53.76
2022-12-31T23:01:58.743Z,53.97
2022-12-31T23:04:28.974Z,54.06
2022-12-31T23:07:01.947Z,53.57
2022-12-31T23:09:44.495Z,53.79
2022-12-31T23:12:14.402Z,53.78
2022-12-31T23:14:56.843Z,53.85
2022-12-31T23:17:42.328Z,53.44
2022-12-31T23:20:28.781Z,53.95
2022-12-31T23:23:11.620Z,53.74
2022-12-31T23:25:44.345Z,54.06
2022-12-31T23:28:18.173Z,53.43
2022-12-31T23:30:48.187Z,53.14
2022-12-31T23:33:20.190Z,52.95
2022-12-31T23:35:50.430Z,52.90
2022-12-31T23:38:22.996Z,52.92
2022-12-31T23:40:54.236Z,53.59
2022-12-31T23:43:25.250Z,53.57
2022-12-31T23:45:56.086Z,53.61
2022-12-31T23:48:26.059Z,53.49
2022-12-31T23:50:56.026Z,53.94
2022-12-31T23:53:28.594Z,53.70
2022-12-31T23:55:58.906Z,53.71
2022-12-31T23:58:28.845Z,53.79
